createdAt,value
2018-12-25T00:01:41.278Z,69.84
2018-12-25T00:04:11.858Z,70.43
2018-12-25T00:06:43.928Z,70.60
2018-12-25T00:09:16.056Z,70.42
2018-12-25T00:11:48.263Z,70.40
2018-12-25T00:14:18.854Z,70.26
2018-12-25T00:16:50.871Z,70.38
2018-12-25T00:19:22.940Z,70.12
2018-12-25T00:21:54.934Z,70.54
2018-12-25T00:24:26.937Z,70.37
2018-12-25T00:26:58.931Z,70.49
2018-12-25T00:29:30.932Z,70.63
2018-12-25T00:32:03.074Z,71.73
2018-12-25T00:34:35.213Z,71.94
2018-12-25T00:37:05.856Z,72.22
2018-12-25T00:39:37.920Z,71.70
2018-12-25T00:42:10.122Z,71.22
2018-12-25T00:44:42.290Z,71.58
2018-12-25T00:47:12.863Z,71.58
2018-12-25T00:49:44.944Z,71.28
2018-12-25T00:52:17.098Z,71.22
2018-12-25T00:54:49.270Z,71.22
2018-12-25T00:57:19.862Z,71.51
2018-12-25T00:59:54.273Z,71.46
2018-12-25T01:02:24.864Z,72.16
2018-12-25T01:04:57.288Z,72.16
2018-12-25T01:07:28.014Z,71.75
2018-12-25T01:10:00.155Z,71.45
2018-12-25T01:12:30.862Z,71.32
2018-12-25T01:15:03.110Z,71.13
2018-12-25T01:17:35.274Z,71.18
2018-12-25T01:20:07.672Z,71.47
2018-12-25T01:22:39.748Z,71.47
2018-12-25T01:25:11.772Z,71.80
2018-12-25T01:27:44.085Z,72.13
2018-12-25T01:30:17.554Z,72.19
2018-12-25T01:32:49.714Z,72.15
2018-12-25T01:35:21.946Z,72.09
2018-12-25T01:37:55.239Z,72.32
2018-12-25T01:40:26.021Z,72.53
2018-12-25T01:43:00.313Z,72.74
2018-12-25T01:45:32.281Z,72.81
2018-12-25T01:48:02.856Z,73.04
2018-12-25T01:50:34.935Z,73.13
2018-12-25T01:53:07.280Z,73.22
2018-12-25T01:55:39.278Z,73.53
2018-12-25T01:58:09.861Z,73.70
2018-12-25T02:00:41.953Z,73.89
2018-12-25T02:03:14.120Z,73.89
2018-12-25T02:05:46.178Z,74.05
2018-12-25T02:08:16.987Z,73.92
2018-12-25T02:10:48.950Z,74.11
2018-12-25T02:13:21.279Z,74.05
2018-12-25T02:15:53.842Z,73.63
2018-12-25T02:18:26.077Z,73.90
2018-12-25T02:20:58.267Z,73.71
2018-12-25T02:23:28.822Z,73.34
2018-12-25T02:26:00.927Z,73.34
2018-12-25T02:28:33.283Z,73.30
2018-12-25T02:31:03.873Z,73.53
2018-12-25T02:33:35.964Z,73.41
2018-12-25T02:36:08.103Z,73.59
2018-12-25T02:38:38.806Z,73.53
2018-12-25T02:41:11.111Z,73.42
2018-12-25T02:43:41.880Z,73.59
2018-12-25T02:46:13.949Z,73.79
2018-12-25T02:48:45.965Z,74.56
2018-12-25T02:51:20.260Z,74.25
2018-12-25T02:53:51.303Z,74.31
2018-12-25T02:56:23.430Z,74.34
2018-12-25T02:58:55.293Z,74.25
2018-12-25T03:01:27.332Z,74.36
2018-12-25T03:03:58.032Z,74.36
2018-12-25T03:06:30.129Z,74.42
2018-12-25T03:09:02.270Z,74.78
2018-12-25T03:11:32.909Z,74.78
2018-12-25T03:14:04.960Z,74.54
2018-12-25T03:16:36.958Z,74.32
2018-12-25T03:19:09.289Z,74.30
2018-12-25T03:21:42.446Z,74.45
2018-12-25T03:24:14.700Z,74.22
2018-12-25T03:26:46.784Z,74.22
2018-12-25T03:29:18.981Z,74.27
2018-12-25T03:31:50.938Z,74.08
2018-12-25T03:34:23.119Z,74.03
2018-12-25T03:36:53.866Z,73.91
2018-12-25T03:39:25.902Z,73.76
2018-12-25T03:41:57.966Z,73.84
2018-12-25T03:44:29.959Z,73.96
2018-12-25T03:47:06.802Z,73.96
2018-12-25T03:49:38.938Z,73.97
2018-12-25T03:52:11.151Z,73.75
2018-12-25T03:54:41.886Z,73.77
2018-12-25T03:57:13.951Z,73.71
2018-12-25T03:59:45.945Z,73.59
2018-12-25T04:02:18.115Z,73.59
2018-12-25T04:04:50.283Z,73.54
2018-12-25T04:07:20.800Z,73.59
2018-12-25T04:09:52.934Z,73.68
2018-12-25T04:12:25.033Z,73.67
2018-12-25T04:14:58.287Z,73.79
2018-12-25T04:17:28.868Z,73.84
2018-12-25T04:20:01.109Z,73.69
2018-12-25T04:22:33.394Z,73.77
2018-12-25T04:25:05.722Z,73.64
2018-12-25T04:27:37.801Z,73.64
2018-12-25T04:30:09.954Z,73.44
2018-12-25T04:32:41.955Z,73.67
2018-12-25T04:35:14.114Z,73.73
2018-12-25T04:37:46.115Z,73.71
2018-12-25T04:40:18.120Z,73.45
2018-12-25T04:42:50.257Z,73.40
2018-12-25T04:45:20.848Z,73.39
2018-12-25T04:47:52.958Z,73.26
2018-12-25T04:50:29.142Z,73.18
2018-12-25T04:52:58.945Z,73.21
2018-12-25T04:55:30.951Z,72.89
2018-12-25T04:58:03.253Z,72.87
2018-12-25T05:00:33.653Z,72.87
2018-12-25T05:03:05.701Z,72.72
2018-12-25T05:05:37.728Z,72.88
2018-12-25T05:08:09.952Z,72.81
2018-12-25T05:10:41.958Z,72.76
2018-12-25T05:13:14.092Z,72.92
2018-12-25T05:15:46.223Z,72.90
2018-12-25T05:18:18.294Z,72.97
2018-12-25T05:20:48.874Z,73.09
2018-12-25T05:23:20.952Z,73.09
2018-12-25T05:25:53.286Z,73.11
2018-12-25T05:28:23.715Z,72.92
2018-12-25T05:30:55.708Z,72.53
2018-12-25T05:33:27.745Z,73.54
2018-12-25T05:35:59.766Z,73.48
2018-12-25T05:38:31.786Z,72.89
2018-12-25T05:41:03.951Z,72.52
2018-12-25T05:43:35.958Z,72.46
2018-12-25T05:46:07.948Z,72.41
2018-12-25T05:48:40.125Z,72.32
2018-12-25T05:51:10.666Z,72.00
2018-12-25T05:53:42.721Z,71.61
2018-12-25T05:56:14.945Z,71.61
2018-12-25T05:58:46.957Z,71.83
2018-12-25T06:01:19.123Z,71.97
2018-12-25T06:03:51.253Z,71.75
2018-12-25T06:06:21.859Z,71.93
2018-12-25T06:08:54.159Z,71.74
2018-12-25T06:11:24.732Z,72.10
2018-12-25T06:13:56.951Z,72.13
2018-12-25T06:16:28.944Z,72.42
2018-12-25T06:19:00.967Z,72.62
2018-12-25T06:21:33.087Z,72.32
2018-12-25T06:24:05.263Z,72.78
2018-12-25T06:26:35.853Z,72.37
2018-12-25T06:29:08.004Z,72.57
2018-12-25T06:31:39.949Z,72.69
2018-12-25T06:34:11.959Z,72.53
2018-12-25T06:36:43.950Z,72.30
2018-12-25T06:39:15.960Z,72.04
2018-12-25T06:41:47.955Z,71.62
2018-12-25T06:44:19.963Z,71.44
2018-12-25T06:46:51.969Z,70.79
2018-12-25T06:49:24.100Z,70.45
2018-12-25T06:51:56.291Z,70.45
2018-12-25T06:54:26.990Z,70.06
2018-12-25T06:56:58.949Z,70.15
2018-12-25T06:59:30.951Z,70.21
2018-12-25T07:02:03.118Z,70.47
2018-12-25T07:07:13.270Z,70.28
2018-12-25T07:09:44.119Z,70.51
2018-12-25T07:12:14.864Z,70.61
2018-12-25T07:14:46.949Z,70.83
2018-12-25T07:17:18.945Z,70.72
2018-12-25T07:19:51.276Z,70.81
2018-12-25T07:22:21.861Z,70.88
2018-12-25T07:24:53.952Z,70.79
2018-12-25T07:27:27.291Z,70.68
2018-12-25T07:29:57.877Z,70.58
2018-12-25T07:32:30.125Z,70.57
2018-12-25T07:35:00.687Z,70.50
2018-12-25T07:37:32.959Z,70.38
2018-12-25T07:40:05.284Z,70.28
2018-12-25T07:42:35.866Z,69.81
2018-12-25T07:45:08.123Z,69.72
2018-12-25T07:47:40.283Z,70.03
2018-12-25T07:50:11.012Z,70.11
2018-12-25T07:52:43.076Z,70.16
2018-12-25T07:55:15.196Z,69.73
2018-12-25T07:57:47.296Z,69.47
2018-12-25T08:00:19.559Z,69.62
2018-12-25T08:02:51.684Z,69.97
2018-12-25T08:05:23.772Z,69.97
2018-12-25T08:07:55.747Z,70.09
2018-12-25T08:10:27.766Z,69.96
2018-12-25T08:12:59.789Z,70.25
2018-12-25T08:15:31.949Z,70.37
2018-12-25T08:18:04.258Z,70.48
2018-12-25T08:20:34.871Z,70.46
2018-12-25T08:23:06.925Z,70.06
2018-12-25T08:25:38.955Z,70.09
2018-12-25T08:28:11.105Z,70.21
2018-12-25T08:30:43.107Z,70.76
2018-12-25T08:33:15.290Z,71.09
2018-12-25T08:35:45.867Z,71.07
2018-12-25T08:38:17.950Z,70.87
2018-12-25T08:40:50.128Z,70.88
2018-12-25T08:43:22.107Z,70.93
2018-12-25T08:45:54.266Z,70.81
2018-12-25T08:48:24.863Z,70.58
2018-12-25T08:50:56.951Z,70.37
2018-12-25T08:53:28.942Z,70.59
2018-12-25T08:56:00.950Z,70.70
2018-12-25T08:58:32.945Z,70.51
2018-12-25T09:01:05.281Z,70.04
2018-12-25T09:03:35.703Z,69.84
2018-12-25T09:06:07.859Z,69.71
2018-12-25T09:08:40.959Z,69.62
2018-12-25T09:11:12.948Z,69.44
2018-12-25T09:13:44.948Z,69.46
2018-12-25T09:16:16.939Z,69.91
2018-12-25T09:18:48.954Z,69.80
2018-12-25T09:21:21.129Z,69.62
2018-12-25T09:23:53.283Z,69.32
2018-12-25T09:26:24.098Z,68.93
2018-12-25T09:28:56.131Z,68.59
2018-12-25T09:31:26.920Z,68.17
2018-12-25T09:33:59.216Z,68.00
2018-12-25T09:36:31.258Z,67.70
2018-12-25T09:39:03.396Z,67.70
2018-12-25T09:41:35.313Z,67.47
2018-12-25T09:44:07.317Z,67.39
2018-12-25T09:46:39.284Z,67.57
2018-12-25T09:49:11.274Z,67.21
2018-12-25T09:51:41.910Z,66.81
2018-12-25T09:54:13.928Z,66.83
2018-12-25T09:56:46.098Z,66.83
2018-12-25T09:59:18.287Z,66.87
2018-12-25T10:01:48.860Z,66.63
2018-12-25T10:04:20.940Z,66.58
2018-12-25T10:06:53.264Z,66.60
2018-12-25T10:09:23.867Z,66.53
2018-12-25T10:11:55.930Z,66.55
2018-12-25T10:14:28.076Z,66.55
2018-12-25T10:17:00.124Z,66.81
2018-12-25T10:19:32.289Z,66.83
2018-12-25T10:22:05.199Z,67.04
2018-12-25T10:24:36.776Z,67.16
2018-12-25T10:27:08.891Z,67.18
2018-12-25T10:29:40.947Z,67.38
2018-12-25T10:32:13.097Z,67.45
2018-12-25T10:37:32.814Z,67.92
2018-12-25T10:40:05.032Z,67.92
2018-12-25T10:42:37.275Z,67.91
2018-12-25T10:45:08.019Z,67.85
2018-12-25T10:47:40.278Z,68.07
2018-12-25T10:50:11.299Z,68.14
2018-12-25T10:52:43.399Z,68.25
2018-12-25T10:55:15.331Z,68.20
2018-12-25T10:57:47.273Z,68.20
2018-12-25T11:00:18.401Z,67.90
2018-12-25T11:02:50.345Z,68.10
2018-12-25T11:05:20.720Z,67.99
2018-12-25T11:07:52.853Z,67.77
2018-12-25T11:10:25.284Z,67.45
2018-12-25T11:12:55.865Z,67.75
2018-12-25T11:15:27.913Z,67.84
2018-12-25T11:18:00.114Z,67.75
2018-12-25T11:20:32.268Z,67.78
2018-12-25T11:23:02.833Z,67.69
2018-12-25T11:25:34.917Z,67.64
2018-12-25T11:28:06.994Z,68.08
2018-12-25T11:30:39.130Z,68.07
2018-12-25T11:33:11.281Z,68.41
2018-12-25T11:35:41.858Z,68.59
2018-12-25T11:38:13.939Z,68.91
2018-12-25T11:40:46.145Z,68.63
2018-12-25T11:43:20.906Z,68.73
2018-12-25T11:45:53.066Z,68.83
2018-12-25T11:48:25.265Z,69.15
2018-12-25T11:50:55.770Z,69.26
2018-12-25T11:56:20.680Z,69.72
2018-12-25T11:58:52.887Z,69.90
2018-12-25T12:01:25.078Z,70.13
2018-12-25T12:03:57.269Z,70.63
2018-12-25T12:06:27.690Z,70.64
2018-12-25T12:08:59.918Z,71.02
2018-12-25T12:11:31.940Z,71.26
2018-12-25T12:14:04.073Z,71.31
2018-12-25T12:16:34.985Z,71.52
2018-12-25T12:19:07.077Z,71.44
2018-12-25T12:21:39.278Z,71.38
2018-12-25T12:24:10.113Z,71.54
2018-12-25T12:26:40.926Z,71.10
2018-12-25T12:29:12.952Z,71.62
2018-12-25T12:31:45.111Z,71.62
2018-12-25T12:34:17.285Z,71.66
2018-12-25T12:36:49.294Z,71.56
2018-12-25T12:39:20.004Z,71.71
2018-12-25T12:41:52.139Z,71.71
2018-12-25T12:44:22.697Z,71.28
2018-12-25T12:46:54.916Z,71.47
2018-12-25T12:49:27.109Z,71.40
2018-12-25T12:51:59.277Z,71.72
2018-12-25T12:54:31.668Z,72.12
2018-12-25T12:57:03.856Z,71.88
2018-12-25T12:59:36.249Z,71.93
2018-12-25T13:02:07.074Z,72.39
2018-12-25T13:04:39.690Z,72.39
2018-12-25T13:07:12.933Z,72.57
2018-12-25T13:09:46.977Z,72.53
2018-12-25T13:12:22.296Z,72.47
2018-12-25T13:14:54.329Z,72.47
2018-12-25T13:17:26.722Z,72.08
2018-12-25T13:19:59.279Z,72.08
2018-12-25T13:22:34.426Z,71.76
2018-12-25T13:25:06.877Z,72.04
2018-12-25T13:27:39.125Z,72.04
2018-12-25T13:30:52.891Z,72.16
2018-12-25T13:33:25.264Z,72.16
2018-12-25T13:35:57.296Z,71.76
2018-12-25T13:38:29.381Z,71.95
2018-12-25T13:41:01.677Z,72.15
2018-12-25T13:43:33.932Z,72.15
2018-12-25T13:46:07.433Z,72.05
2018-12-25T13:48:39.698Z,71.93
2018-12-25T13:51:12.106Z,71.96
2018-12-25T13:53:44.376Z,72.37
2018-12-25T13:56:16.685Z,72.51
2018-12-25T13:58:51.273Z,72.38
2018-12-25T14:01:22.057Z,72.50
2018-12-25T14:03:54.416Z,72.29
2018-12-25T14:06:26.638Z,72.63
2018-12-25T14:08:58.986Z,72.63
2018-12-25T14:11:31.292Z,72.48
2018-12-25T14:14:02.101Z,72.41
2018-12-25T14:16:33.050Z,72.41
2018-12-25T14:19:05.284Z,72.47
2018-12-25T14:21:37.464Z,72.14
2018-12-25T14:24:09.887Z,72.24
2018-12-25T14:27:06.567Z,72.24
2018-12-25T14:29:36.852Z,71.95
2018-12-25T14:32:08.937Z,72.09
2018-12-25T14:34:41.054Z,72.23
2018-12-25T14:37:13.242Z,71.84
2018-12-25T14:39:43.903Z,72.23
2018-12-25T14:42:16.067Z,72.08
2018-12-25T14:44:48.262Z,71.89
2018-12-25T14:47:18.853Z,72.00
2018-12-25T14:49:50.936Z,72.28
2018-12-25T14:52:23.093Z,71.97
2018-12-25T14:54:53.888Z,71.58
2018-12-25T14:57:25.943Z,71.34
2018-12-25T14:59:57.944Z,71.51
2018-12-25T15:02:30.081Z,71.35
2018-12-25T15:05:02.337Z,71.20
2018-12-25T15:07:33.001Z,71.15
2018-12-25T15:10:05.121Z,71.34
2018-12-25T15:12:35.704Z,71.34
2018-12-25T15:15:07.940Z,71.47
2018-12-25T15:17:39.942Z,71.56
2018-12-25T15:20:11.925Z,71.39
2018-12-25T15:22:43.932Z,71.29
2018-12-25T15:25:15.977Z,71.30
2018-12-25T15:27:48.096Z,71.23
2018-12-25T15:30:18.692Z,71.22
2018-12-25T15:34:02.734Z,71.25
2018-12-25T15:36:34.863Z,71.25
2018-12-25T15:39:11.350Z,71.46
2018-12-25T15:41:43.271Z,71.46
2018-12-25T15:44:13.703Z,71.60
2018-12-25T15:46:45.936Z,71.37
2018-12-25T15:49:17.928Z,71.18
2018-12-25T15:51:49.950Z,71.25
2018-12-25T15:54:21.934Z,71.20
2018-12-25T15:56:54.242Z,70.89
2018-12-25T15:59:24.804Z,70.85
2018-12-25T16:01:56.894Z,70.82
2018-12-25T16:04:28.931Z,71.02
2018-12-25T16:07:00.945Z,71.27
2018-12-25T16:09:33.142Z,71.57
2018-12-25T16:12:03.747Z,71.60
2018-12-25T16:14:35.930Z,71.74
2018-12-25T16:17:07.948Z,71.97
2018-12-25T16:19:40.280Z,72.24
2018-12-25T16:22:10.985Z,72.52
2018-12-25T16:24:43.251Z,72.36
2018-12-25T16:27:13.669Z,72.30
2018-12-25T16:29:45.896Z,72.25
2018-12-25T16:32:17.943Z,71.95
2018-12-25T16:34:49.958Z,71.95
2018-12-25T16:37:22.281Z,71.56
2018-12-25T16:39:52.731Z,71.72
2018-12-25T16:42:24.923Z,71.55
2018-12-25T16:44:57.259Z,71.38
2018-12-25T16:47:28.001Z,71.22
2018-12-25T16:49:59.945Z,71.10
2018-12-25T16:52:32.131Z,71.29
2018-12-25T16:55:04.247Z,71.25
2018-12-25T16:57:35.857Z,71.54
2018-12-25T17:00:09.284Z,71.36
2018-12-25T17:02:39.724Z,71.34
2018-12-25T17:05:11.942Z,71.52
2018-12-25T17:07:43.948Z,71.75
2018-12-25T17:10:16.267Z,71.58
2018-12-25T17:12:46.797Z,71.39
2018-12-25T17:15:20.110Z,71.14
2018-12-25T17:17:52.110Z,71.24
2018-12-25T17:20:23.315Z,71.37
2018-12-25T17:22:59.637Z,71.30
2018-12-25T17:25:31.729Z,71.12
2018-12-25T17:28:03.903Z,70.94
2018-12-25T17:30:36.648Z,70.90
2018-12-25T17:33:09.079Z,70.69
2018-12-25T17:35:41.267Z,70.55
2018-12-25T17:38:12.267Z,70.78
2018-12-25T17:40:43.069Z,70.63
2018-12-25T17:43:15.350Z,70.30
2018-12-25T17:45:47.737Z,69.70
2018-12-25T17:48:22.305Z,69.70
2018-12-25T17:50:54.383Z,69.45
2018-12-25T17:53:26.693Z,69.78
2018-12-25T17:56:00.316Z,69.78
2018-12-25T17:58:32.760Z,69.14
2018-12-25T18:01:05.363Z,68.78
2018-12-25T18:03:37.268Z,68.94
2018-12-25T18:06:07.702Z,69.01
2018-12-25T18:08:40.781Z,68.86
2018-12-25T18:11:13.307Z,68.75
2018-12-25T18:13:45.301Z,68.45
2018-12-25T18:16:17.540Z,68.36
2018-12-25T18:18:49.955Z,68.05
2018-12-25T18:21:22.170Z,68.05
2018-12-25T18:23:53.074Z,67.99
2018-12-25T18:26:25.317Z,67.75
2018-12-25T18:28:57.473Z,67.65
2018-12-25T18:31:29.946Z,67.43
2018-12-25T18:34:02.322Z,67.43
2018-12-25T18:36:34.763Z,67.09
2018-12-25T18:39:09.312Z,67.13
2018-12-25T18:41:41.344Z,67.37
2018-12-25T18:44:14.337Z,67.59
2018-12-25T18:46:47.305Z,67.75
2018-12-25T18:49:19.417Z,67.75
2018-12-25T18:51:51.664Z,68.02
2018-12-25T18:54:27.955Z,68.02
2018-12-25T18:56:57.976Z,67.87
2018-12-25T18:59:30.389Z,67.87
2018-12-25T19:02:02.897Z,67.70
2018-12-25T19:04:35.315Z,67.70
2018-12-25T19:07:07.633Z,68.08
2018-12-25T19:09:40.279Z,68.32
2018-12-25T19:14:32.792Z,69.16
2018-12-25T19:17:04.939Z,69.16
2018-12-25T19:19:37.259Z,69.28
2018-12-25T19:22:14.392Z,69.53
2018-12-25T19:24:46.272Z,69.43
2018-12-25T19:27:17.241Z,69.51
2018-12-25T19:29:48.285Z,69.65
2018-12-25T19:32:20.720Z,69.35
2018-12-25T19:34:53.256Z,69.30
2018-12-25T19:37:24.281Z,69.29
2018-12-25T19:39:55.273Z,69.23
2018-12-25T19:42:25.870Z,69.44
2018-12-25T19:44:57.949Z,69.50
2018-12-25T19:47:29.932Z,69.51
2018-12-25T19:50:01.945Z,69.47
2018-12-25T19:52:34.282Z,69.52
2018-12-25T19:55:05.048Z,69.40
2018-12-25T19:57:37.427Z,69.15
2018-12-25T20:00:12.480Z,69.67
2018-12-25T20:02:47.744Z,69.67
2018-12-25T20:05:35.397Z,69.27
2018-12-25T20:09:03.322Z,69.06
2018-12-25T20:12:12.086Z,69.06
2018-12-25T20:15:12.616Z,69.02
2018-12-25T20:18:43.916Z,68.81
2018-12-25T20:22:02.934Z,68.79
2018-12-25T20:25:49.279Z,68.85
2018-12-25T20:29:01.374Z,68.85
2018-12-25T20:32:15.868Z,68.54
2018-12-25T20:35:47.280Z,68.62
2018-12-25T20:38:55.861Z,68.62
2018-12-25T20:42:27.034Z,68.81
2018-12-25T20:45:58.917Z,68.90
2018-12-25T20:49:20.470Z,68.87
2018-12-25T20:53:08.288Z,68.80
2018-12-25T20:56:47.281Z,68.80
2018-12-25T20:59:55.577Z,69.28
2018-12-25T21:03:36.022Z,69.42
2018-12-25T21:07:13.367Z,69.44
2018-12-25T21:10:55.796Z,69.33
2018-12-25T21:14:21.323Z,69.38
2018-12-25T21:17:49.024Z,69.36
2018-12-25T21:21:19.740Z,69.36
2018-12-25T21:24:45.292Z,69.60
2018-12-25T21:27:35.944Z,69.47
2018-12-25T21:30:10.908Z,69.46
2018-12-25T21:32:46.273Z,69.38
2018-12-25T21:35:22.707Z,69.11
2018-12-25T21:37:55.708Z,69.19
2018-12-25T21:40:28.084Z,69.20
2018-12-25T21:43:00.777Z,69.15
2018-12-25T21:45:33.264Z,69.03
2018-12-25T21:48:04.311Z,69.09
2018-12-25T21:50:36.319Z,69.25
2018-12-25T21:53:08.325Z,69.25
2018-12-25T21:55:40.650Z,69.07
2018-12-25T21:58:12.944Z,69.18
2018-12-25T22:00:45.315Z,69.12
2018-12-25T22:03:17.646Z,69.03
2018-12-25T22:05:50.069Z,68.86
2018-12-25T22:08:22.456Z,68.83
2018-12-25T22:10:54.703Z,68.81
2018-12-25T22:13:26.919Z,68.35
2018-12-25T22:15:59.095Z,68.45
2018-12-25T22:18:29.866Z,68.25
2018-12-25T22:21:02.260Z,68.42
2018-12-25T22:23:33.080Z,68.51
2018-12-25T22:26:05.174Z,68.53
2018-12-25T22:28:37.473Z,68.35
2018-12-25T22:31:09.658Z,68.36
2018-12-25T22:33:42.164Z,68.36
2018-12-25T22:36:14.278Z,68.05
2018-12-25T22:38:45.456Z,68.02
2018-12-25T22:41:17.636Z,68.04
2018-12-25T22:43:49.748Z,68.04
2018-12-25T22:46:21.879Z,67.85
2018-12-25T22:48:54.275Z,68.21
2018-12-25T22:51:25.264Z,68.01
2018-12-25T22:53:56.044Z,68.01
2018-12-25T22:56:28.273Z,67.88
2018-12-25T22:58:59.253Z,67.90
2018-12-25T23:01:30.076Z,67.86
2018-12-25T23:04:02.298Z,67.83
2018-12-25T23:06:34.696Z,67.83
2018-12-25T23:09:10.621Z,67.74
2018-12-25T23:11:43.262Z,67.61
2018-12-25T23:14:13.849Z,67.68
2018-12-25T23:16:46.088Z,67.72
2018-12-25T23:19:18.286Z,67.75
2018-12-25T23:21:49.272Z,67.99
2018-12-25T23:24:20.106Z,67.90
2018-12-25T23:26:51.071Z,67.82
2018-12-25T23:29:23.274Z,67.90
2018-12-25T23:31:53.995Z,67.93
2018-12-25T23:34:26.252Z,67.80
2018-12-25T23:36:56.854Z,67.93
2018-12-25T23:39:29.117Z,67.93
2018-12-25T23:41:59.868Z,68.02
2018-12-25T23:44:32.257Z,68.07
2018-12-25T23:47:03.302Z,68.03
2018-12-25T23:49:37.913Z,67.85
2018-12-25T23:52:10.125Z,67.65
2018-12-25T23:54:42.275Z,67.83
2018-12-25T23:57:12.785Z,67.82
2018-12-25T23:59:45.103Z,67.78
